^^
Grace C. Lehan Memorial Weather Station Historical Data
Daily Summary for June 13, 2021 Units:  English    Metric   Both
Daily Weekly Monthly Yearly
  High: Low: Average:
Temperature: 72.3 °F 43.2 °F 59.8 °F
Dew Point: 46.3 °F 33.1 °F 39.2 °F
Humidity: 86% 25.7% 51%
Wind Speed: 3.1mph 0mph 0.2mph
Wind Gust: 9mph - -
Wind- - SSW
Pressure: 30.18 in 30.08 in -
Precipitation: 0.00 in    
 
 
Tabular Data for June 13, 2021
Time Temperature Dew Point Pressure Wind Wind Speed Wind Gust Humidity Rainfall Rate (Hourly) solar
00:00 53.6 °F 37.8 °F 30.15 in Calm     55% 0.00 in 0 W/m2
00:09 53.7 °F 37.5 °F 30.15 in Calm     54% 0.00 in 0 W/m2
00:14 53.7 °F 37.7 °F 30.15 in Calm     54.4% 0.00 in 0 W/m2
00:19 53.7 °F 38.4 °F 30.15 in Calm     56.1% 0.00 in 0 W/m2
00:24 53.4 °F 39 °F 30.15 in Calm     58% 0.00 in 0 W/m2
00:29 53.2 °F 39 °F 30.15 in Calm     58.4% 0.00 in 0 W/m2
00:34 52.9 °F 39.2 °F 30.15 in Calm     59.6% 0.00 in 0 W/m2
00:39 52.6 °F 39.4 °F 30.15 in Calm     60.7% 0.00 in 0 W/m2
00:44 52.3 °F 39 °F 30.15 in Calm     60.2% 0.00 in 0 W/m2
00:49 52 °F 39.5 °F 30.15 in Calm     62.2% 0.00 in 0 W/m2
00:54 51.7 °F 39.8 °F 30.15 in Calm     63.7% 0.00 in 0 W/m2
00:59 51.3 °F 39.3 °F 30.15 in Calm     63.2% 0.00 in 0 W/m2
01:04 51.1 °F 39.2 °F 30.15 in Calm     63.6% 0.00 in 0 W/m2
01:09 50.9 °F 39.3 °F 30.15 in Calm     64.5% 0.00 in 0 W/m2
01:14 50.7 °F 39.5 °F 30.15 in Calm     65.2% 0.00 in 0 W/m2
01:19 50.6 °F 39.6 °F 30.15 in Calm     66% 0.00 in 0 W/m2
01:24 50.4 °F 39.7 °F 30.15 in Calm     66.5% 0.00 in 0 W/m2
01:29 50.2 °F 39.7 °F 30.15 in Calm     67% 0.00 in 0 W/m2
01:34 50.1 °F 39.5 °F 30.15 in Calm     67% 0.00 in 0 W/m2
01:39 49.9 °F 39.4 °F 30.15 in Calm     67% 0.00 in 0 W/m2
01:44 49.8 °F 39.3 °F 30.15 in Calm     67% 0.00 in 0 W/m2
01:49 49.6 °F 39.4 °F 30.15 in Calm     67.5% 0.00 in 0 W/m2
01:54 49.5 °F 39.7 °F 30.15 in Calm     68.9% 0.00 in 0 W/m2
01:59 49.3 °F 39.2 °F 30.15 in Calm     68% 0.00 in 0 W/m2
02:04 49 °F 39.2 °F 30.14 in Calm     68.6% 0.00 in 0 W/m2
02:09 48.8 °F 39.4 °F 30.14 in Calm     69.8% 0.00 in 0 W/m2
02:14 48.6 °F 39.6 °F 30.14 in Calm     70.8% 0.00 in 0 W/m2
02:19 48.5 °F 39.8 °F 30.14 in Calm     71.9% 0.00 in 0 W/m2
02:24 48.3 °F 39.7 °F 30.14 in Calm     72% 0.00 in 0 W/m2
02:29 48.1 °F 39.7 °F 30.15 in Calm     72.4% 0.00 in 0 W/m2
02:34 47.9 °F 39.4 °F 30.14 in Calm     72.2% 0.00 in 0 W/m2
02:39 47.8 °F 39.3 °F 30.15 in Calm     72.2% 0.00 in 0 W/m2
02:44 47.7 °F 39.1 °F 30.15 in Calm     72% 0.00 in 0 W/m2
02:49 47.6 °F 39 °F 30.15 in Calm     72% 0.00 in 0 W/m2
02:54 47.5 °F 39 °F 30.15 in Calm     72% 0.00 in 0 W/m2
02:59 47.4 °F 38.9 °F 30.15 in Calm     72.2% 0.00 in 0 W/m2
03:04 47.4 °F 39.4 °F 30.15 in Calm     73.8% 0.00 in 0 W/m2
03:09 47.3 °F 39.1 °F 30.14 in Calm     73.2% 0.00 in 0 W/m2
03:14 47.2 °F 39.3 °F 30.15 in Calm     74% 0.00 in 0 W/m2
03:19 47 °F 39.2 °F 30.15 in Calm     74% 0.00 in 0 W/m2
03:24 46.9 °F 39 °F 30.15 in Calm     74% 0.00 in 0 W/m2
03:29 46.7 °F 39 °F 30.15 in Calm     74.4% 0.00 in 0 W/m2
03:34 46.5 °F 39.1 °F 30.15 in Calm     75.2% 0.00 in 0 W/m2
03:39 46.3 °F 39.3 °F 30.15 in Calm     76.3% 0.00 in 0 W/m2
03:44 46.3 °F 39.6 °F 30.15 in Calm     77.3% 0.00 in 0 W/m2
03:49 46.2 °F 39.8 °F 30.15 in Calm     78.3% 0.00 in 0 W/m2
03:54 46.1 °F 40 °F 30.15 in Calm     79% 0.00 in 0 W/m2
03:59 46.1 °F 39.9 °F 30.15 in Calm     79.1% 0.00 in 0 W/m2
04:00 46.1 °F 40.3 °F 30.15 in Calm     80% 0.00 in 0 W/m2
04:09 45.9 °F 40.1 °F 30.15 in Calm     80% 0.00 in 0 W/m2
04:14 45.9 °F 40.4 °F 30.15 in Calm     81% 0.00 in 0 W/m2
04:19 45.8 °F 40.3 °F 30.15 in Calm     81% 0.00 in 0 W/m2
04:24 45.6 °F 40.2 °F 30.15 in Calm     81% 0.00 in 0 W/m2
04:29 45.4 °F 39.9 °F 30.15 in Calm     81% 0.00 in 0 W/m2
04:34 45 °F 39.6 °F 30.15 in Calm     81% 0.00 in 0 W/m2
04:39 44.7 °F 39.3 °F 30.16 in Calm     81% 0.00 in 0 W/m2
04:44 44.5 °F 39.3 °F 30.15 in Calm     81.7% 0.00 in 0 W/m2
04:49 44.4 °F 39.2 °F 30.15 in Calm     82% 0.00 in 0 W/m2
04:54 44.3 °F 39.2 °F 30.15 in Calm     82.3% 0.00 in 0 W/m2
04:59 44.2 °F 39.4 °F 30.16 in Calm     83% 0.00 in 0 W/m2
05:04 44.2 °F 39.6 °F 30.15 in Calm     83.9% 0.00 in 0 W/m2
05:09 44.1 °F 39.6 °F 30.15 in Calm     84% 0.00 in 0 W/m2
05:14 44 °F 39.4 °F 30.16 in Calm     84% 0.00 in 0 W/m2
05:19 43.8 °F 39.3 °F 30.16 in Calm     84% 0.00 in 0 W/m2
05:24 43.6 °F 39.1 °F 30.16 in Calm     84% 0.00 in 0 W/m2
05:29 43.5 °F 39 °F 30.16 in Calm     84% 0.00 in 0 W/m2
05:34 43.4 °F 38.9 °F 30.15 in Calm     84% 0.00 in 0 W/m2
05:39 43.4 °F 38.9 °F 30.16 in Calm     84% 0.00 in 5 W/m2
05:44 43.3 °F 38.8 °F 30.16 in Calm     84% 0.00 in 9 W/m2
05:49 43.2 °F 38.7 °F 30.16 in Calm     84% 0.00 in 11 W/m2
05:54 43.2 °F 38.7 °F 30.16 in Calm     84% 0.00 in 14 W/m2
05:59 43.2 °F 38.7 °F 30.16 in Calm     84% 0.00 in 18 W/m2
06:04 43.2 °F 38.7 °F 30.16 in Calm     84% 0.00 in 21 W/m2
06:09 43.2 °F 38.7 °F 30.16 in Calm     84.1% 0.00 in 25 W/m2
06:14 43.2 °F 39 °F 30.16 in Calm     85% 0.00 in 30 W/m2
06:19 43.3 °F 39.3 °F 30.16 in Calm     85.6% 0.00 in 39 W/m2
06:24 43.4 °F 39.2 °F 30.17 in Calm     85% 0.00 in 46 W/m2
06:29 43.5 °F 39.3 °F 30.17 in Calm     85% 0.00 in 58 W/m2
06:34 43.7 °F 39.8 °F 30.17 in Calm     85.9% 0.00 in 70 W/m2
06:39 44 °F 40.1 °F 30.17 in Calm     86% 0.00 in 77 W/m2
06:44 44.6 °F 40.7 °F 30.17 in Calm     86% 0.00 in 102 W/m2
06:49 45.4 °F 41.5 °F 30.17 in Calm     86% 0.00 in 181 W/m2
06:54 46.4 °F 42.3 °F 30.17 in Calm     85.5% 0.00 in 220 W/m2
06:59 47.6 °F 42.8 °F 30.17 in Calm     83.4% 0.00 in 236 W/m2
07:04 48.8 °F 43.1 °F 30.17 in Calm     80.4% 0.00 in 253 W/m2
07:09 50.1 °F 43.3 °F 30.17 in Calm     77.3% 0.00 in 271 W/m2
07:14 51.4 °F 43.9 °F 30.17 in Calm     75.5% 0.00 in 288 W/m2
07:19 52.5 °F 44.4 °F 30.17 in Calm     73.8% 0.00 in 302 W/m2
07:24 53.4 °F 44.8 °F 30.17 in Calm     72.6% 0.00 in 320 W/m2
07:29 54.3 °F 45.1 °F 30.17 in Calm     71.1% 0.00 in 339 W/m2
07:34 55.2 °F 45.9 °F 30.17 in Calm     70.8% 0.00 in 355 W/m2
07:39 56 °F 46 °F 30.17 in Calm     69.1% 0.00 in 374 W/m2
07:44 56.9 °F 46.1 °F 30.17 in Calm     67.2% 0.00 in 392 W/m2
07:49 57.7 °F 46.2 °F 30.17 in Calm     65.6% 0.00 in 410 W/m2
07:54 58.3 °F 46.3 °F 30.17 in Calm     64.1% 0.00 in 427 W/m2
07:59 58.9 °F 46.2 °F 30.17 in Calm     62.8% 0.00 in 441 W/m2
08:00 59.2 °F 46.2 °F 30.17 in Calm     62% 0.00 in 443 W/m2
08:09 60 °F 46.1 °F 30.18 in Calm     59.9% 0.00 in 476 W/m2
08:14 60.5 °F 45.4 °F 30.18 in Calm     57.5% 0.00 in 492 W/m2
08:19 61 °F 45.3 °F 30.18 in Calm     56.1% 0.00 in 508 W/m2
08:24 61.6 °F 44.9 °F 30.18 in Calm     54.3% 0.00 in 527 W/m2
08:29 62 °F 44.5 °F 30.18 in Calm     52.6% 0.00 in 545 W/m2
08:34 62.4 °F 45.9 °F 30.18 in Calm     54.7% 0.00 in 557 W/m2
08:39 62.8 °F 45.3 °F 30.18 in Calm     52.7% 0.00 in 573 W/m2
08:44 63.2 °F 44.8 °F 30.18 in Calm     51.2% 0.00 in 591 W/m2
08:49 63.6 °F 45.6 °F 30.18 in Calm     51.9% 0.00 in 606 W/m2
08:54 64 °F 45.3 °F 30.18 in Calm     50.7% 0.00 in 621 W/m2
08:59 64.3 °F 45 °F 30.18 in Calm     49.5% 0.00 in 638 W/m2
09:04 64.4 °F 44.5 °F 30.18 in Calm     48.3% 0.00 in 654 W/m2
09:09 64.9 °F 45.3 °F 30.18 in Calm     49% 0.00 in 666 W/m2
09:14 65.3 °F 44.7 °F 30.18 in Calm     47.3% 0.00 in 680 W/m2
09:19 65.8 °F 44.5 °F 30.18 in Calm     46.1% 0.00 in 696 W/m2
09:24 66.4 °F 44.6 °F 30.18 in Calm     45.3% 0.00 in 712 W/m2
09:29 66.9 °F 45 °F 30.18 in Calm     45.2% 0.00 in 726 W/m2
09:34 67.2 °F 43.6 °F 30.18 in Calm     42.4% 0.00 in 740 W/m2
09:39 67.4 °F 44.4 °F 30.18 in Calm     43.5% 0.00 in 752 W/m2
09:44 67.4 °F 43.9 °F 30.18 in Calm     42.6% 0.00 in 765 W/m2
09:49 67.6 °F 43.8 °F 30.18 in Calm     42.2% 0.00 in 780 W/m2
09:54 68 °F 45.1 °F 30.17 in Calm     43.8% 0.00 in 786 W/m2
09:59 68.3 °F 42.8 °F 30.17 in Calm   1 mph 39.6% 0.00 in 802 W/m2
10:04 68.2 °F 43.4 °F 30.17 in NNE 0.1 mph 2 mph 40.5% 0.00 in 816 W/m2
10:09 68.6 °F 43.4 °F 30.17 in Calm   2 mph 40.1% 0.00 in 826 W/m2
10:14 68.9 °F 42.5 °F 30.17 in NNE 0.2 mph 2 mph 38.3% 0.00 in 835 W/m2
10:19 69.3 °F 42.6 °F 30.17 in NNW 0.5 mph 6 mph 38% 0.00 in 846 W/m2
10:24 69.7 °F 41.6 °F 30.17 in NNW 0.5 mph 6 mph 36% 0.00 in 854 W/m2
10:29 70 °F 41.3 °F 30.17 in Calm   6 mph 35.3% 0.00 in 874 W/m2
10:34 70.2 °F 40.3 °F 30.17 in ENE 0.6 mph 6 mph 33.7% 0.00 in 884 W/m2
10:39 70.2 °F 40.2 °F 30.17 in East 0.7 mph 5 mph 33.5% 0.00 in 909 W/m2
10:44 69.9 °F 39.2 °F 30.17 in East 1.1 mph 5 mph 32.6% 0.00 in 926 W/m2
10:49 69.7 °F 39.5 °F 30.17 in ENE 1.7 mph 6 mph 33.2% 0.00 in 933 W/m2
10:54 70.3 °F 39.6 °F 30.17 in ENE 0.7 mph 6 mph 32.8% 0.00 in 986 W/m2
10:59 70 °F 37.8 °F 30.17 in ENE 0.3 mph 6 mph 30.8% 0.00 in 1100 W/m2
11:04 69.8 °F 39.3 °F 30.17 in ENE 0.2 mph 6 mph 32.8% 0.00 in 1172 W/m2
11:09 69.7 °F 37.3 °F 30.17 in ENE 0.1 mph 3 mph 30.5% 0.00 in 1172 W/m2
11:14 69.5 °F 39.9 °F 30.16 in Calm   3 mph 34% 0.00 in 390 W/m2
11:19 69.3 °F 39.6 °F 30.17 in Calm   3 mph 33.9% 0.00 in 309 W/m2
11:24 69 °F 39.4 °F 30.17 in Calm   3 mph 33.9% 0.00 in 297 W/m2
11:29 68.6 °F 40.3 °F 30.16 in ENE 0.2 mph 3 mph 35.5% 0.00 in 220 W/m2
11:34 68.1 °F 38.3 °F 30.16 in Calm   3 mph 33.5% 0.00 in 260 W/m2
11:39 67.6 °F 39.6 °F 30.16 in Calm   1 mph 35.9% 0.00 in 294 W/m2
11:44 67.3 °F 39.1 °F 30.16 in Calm   1 mph 35.5% 0.00 in 336 W/m2
11:49 67.2 °F 39 °F 30.16 in NNE 0.4 mph 5 mph 35.5% 0.00 in 436 W/m2
11:54 67.1 °F 39.5 °F 30.16 in NNE 0.1 mph 5 mph 36.3% 0.00 in 436 W/m2
11:59 66.9 °F 38.3 °F 30.16 in NNE 0.5 mph 5 mph 34.9% 0.00 in 427 W/m2
12:00 66.9 °F 38.4 °F 30.16 in Calm   5 mph 35% 0.00 in 309 W/m2
12:09 67 °F 37.2 °F 30.16 in Calm     33.2% 0.00 in 396 W/m2
12:14 67 °F 37.5 °F 30.16 in Calm     33.6% 0.00 in 793 W/m2
12:19 67.4 °F 38.6 °F 30.16 in North 1.3 mph 4 mph 34.7% 0.00 in 1352 W/m2
12:24 68.3 °F 38.2 °F 30.15 in North 1.4 mph 5 mph 33.1% 0.00 in 1292 W/m2
12:29 68.7 °F 37.6 °F 30.15 in NNW 0.1 mph 5 mph 32% 0.00 in 401 W/m2
12:34 68.7 °F 37.1 °F 30.15 in Calm   5 mph 31.3% 0.00 in 367 W/m2
12:39 68.5 °F 37.4 °F 30.15 in Calm     31.9% 0.00 in 341 W/m2
12:44 68.4 °F 36.3 °F 30.15 in Calm     30.6% 0.00 in 350 W/m2
12:49 68.3 °F 38.6 °F 30.15 in NNW 0.3 mph 5 mph 33.7% 0.00 in 350 W/m2
12:54 68.2 °F 37 °F 30.14 in NNE 0.5 mph 5 mph 31.7% 0.00 in 777 W/m2
12:59 68.1 °F 37.9 °F 30.14 in ENE 0.1 mph 5 mph 33% 0.00 in 898 W/m2
13:04 68.6 °F 40.1 °F 30.14 in ENE 0.7 mph 6 mph 35.5% 0.00 in 1114 W/m2
13:09 69.2 °F 39.1 °F 30.14 in NE 1.5 mph 9 mph 33.3% 0.00 in 1074 W/m2
13:14 70 °F 38.4 °F 30.14 in NNE 1.1 mph 9 mph 31.6% 0.00 in 1056 W/m2
13:19 70.4 °F 37.2 °F 30.14 in ENE 0.3 mph 9 mph 29.6% 0.00 in 1090 W/m2
13:24 70.4 °F 39.7 °F 30.14 in ENE 0.2 mph 9 mph 32.7% 0.00 in 1185 W/m2
13:29 70.6 °F 40.1 °F 30.14 in ENE 0.1 mph 9 mph 33% 0.00 in 1185 W/m2
13:34 70.5 °F 38.9 °F 30.14 in ENE 0.4 mph 9 mph 31.6% 0.00 in 239 W/m2
13:39 70.1 °F 37.7 °F 30.14 in Calm   3 mph 30.6% 0.00 in 211 W/m2
13:44 69.5 °F 38.1 °F 30.14 in ENE 0.2 mph 4 mph 31.6% 0.00 in 271 W/m2
13:49 69.2 °F 37.6 °F 30.13 in Calm   4 mph 31.3% 0.00 in 352 W/m2
13:54 69.2 °F 39.4 °F 30.13 in NW 1.5 mph 7 mph 33.6% 0.00 in 1176 W/m2
13:59 69.6 °F 38.4 °F 30.13 in West 0.4 mph 7 mph 31.9% 0.00 in 1176 W/m2
14:04 69.8 °F 36.6 °F 30.13 in Calm   7 mph 29.5% 0.00 in 295 W/m2
14:09 69.9 °F 37.3 °F 30.13 in Calm   1 mph 30.3% 0.00 in 679 W/m2
14:14 70.1 °F 37.5 °F 30.13 in NW 0.8 mph 5 mph 30.3% 0.00 in 1260 W/m2
14:19 70.5 °F 37.1 °F 30.13 in North 0.6 mph 6 mph 29.5% 0.00 in 983 W/m2
14:24 70.5 °F 35.7 °F 30.12 in Calm   6 mph 27.8% 0.00 in 325 W/m2
14:29 70.4 °F 36.4 °F 30.12 in NNW 0.4 mph 6 mph 28.8% 0.00 in 1092 W/m2
14:34 70.2 °F 37.1 °F 30.12 in NNE 0.9 mph 6 mph 29.7% 0.00 in 1092 W/m2
14:39 70.6 °F 35.7 °F 30.12 in WNW 1.2 mph 5 mph 27.7% 0.00 in 1071 W/m2
14:43 70.9 °F 35.3 °F 30.11 in WNW 2.4 mph 5 mph 27.1% 0.00 in 1125 W/m2
14:49 70.5 °F 33.8 °F 30.11 in East 1.7 mph 5 mph 25.8% 0.00 in 1125 W/m2
14:54 70.3 °F 34.7 °F 30.11 in ENE 0.1 mph 5 mph 26.9% 0.00 in 1102 W/m2
14:59 70.2 °F 35.7 °F 30.11 in ENE 0.3 mph 5 mph 28.2% 0.00 in 253 W/m2
15:04 70.1 °F 34.2 °F 30.11 in NE 0.2 mph 5 mph 26.7% 0.00 in 1134 W/m2
15:09 70 °F 35.8 °F 30.11 in NE 0.1 mph 2 mph 28.5% 0.00 in 963 W/m2
15:14 70.3 °F 36.9 °F 30.11 in NW 0.5 mph 5 mph 29.4% 0.00 in 909 W/m2
15:19 70.8 °F 38.2 °F 30.11 in West 1.2 mph 6 mph 30.4% 0.00 in 327 W/m2
15:24 71.1 °F 38 °F 30.11 in WNW 2.6 mph 9 mph 29.9% 0.00 in 265 W/m2
15:29 70.9 °F 34.7 °F 30.11 in WNW 1 mph 9 mph 26.4% 0.00 in 204 W/m2
15:34 70.5 °F 35.5 °F 30.10 in WNW 0.2 mph 9 mph 27.6% 0.00 in 179 W/m2
15:39 70.1 °F 36.4 °F 30.10 in Calm   2 mph 29.1% 0.00 in 847 W/m2
15:44 70.2 °F 36.8 °F 30.10 in WNW 1.1 mph 5 mph 29.4% 0.00 in 909 W/m2
15:49 70.6 °F 36.1 °F 30.10 in WNW 1.3 mph 5 mph 28.1% 0.00 in 923 W/m2
15:54 71.1 °F 37.1 °F 30.10 in Calm   5 mph 28.8% 0.00 in 598 W/m2
15:59 71.4 °F 35.5 °F 30.10 in WNW 0.5 mph 5 mph 26.8% 0.00 in 914 W/m2
16:09 72.1 °F 37.1 °F 30.09 in West 0.9 mph 5 mph 27.9% 0.00 in 947 W/m2
16:14 72.3 °F 36.2 °F 30.09 in WNW 3.1 mph 7 mph 26.8% 0.00 in 332 W/m2
16:19 72.1 °F 36.3 °F 30.09 in NW 1.5 mph 7 mph 27% 0.00 in 257 W/m2
16:24 71.7 °F 34.7 °F 30.09 in West 0.5 mph 7 mph 25.7% 0.00 in 206 W/m2
16:29 71.2 °F 36.6 °F 30.09 in Calm   7 mph 28.1% 0.00 in 176 W/m2
16:34 70.9 °F 36.6 °F 30.09 in West 0.3 mph 7 mph 28.4% 0.00 in 148 W/m2
16:39 70.6 °F 35.8 °F 30.09 in WNW 0.6 mph 5 mph 27.9% 0.00 in 151 W/m2
16:44 70.3 °F 35.9 °F 30.09 in WNW 0.7 mph 5 mph 28.3% 0.00 in 158 W/m2
16:49 69.9 °F 35.8 °F 30.09 in WNW 0.1 mph 5 mph 28.5% 0.00 in 160 W/m2
16:54 69.7 °F 36.8 °F 30.09 in Calm   5 mph 29.9% 0.00 in 162 W/m2
16:59 69.5 °F 36.4 °F 30.09 in NW 1 mph 6 mph 29.6% 0.00 in 148 W/m2
17:04 69.5 °F 35.7 °F 30.09 in NW 0.6 mph 6 mph 28.8% 0.00 in 139 W/m2
17:09 69.5 °F 34.7 °F 30.09 in Calm   4 mph 27.7% 0.00 in 93 W/m2
17:14 69.7 °F 35.6 °F 30.09 in NW 0.7 mph 4 mph 28.5% 0.00 in 83 W/m2
17:19 69.7 °F 36.3 °F 30.09 in NW 0.1 mph 4 mph 29.3% 0.00 in 70 W/m2
17:24 69.8 °F 34.7 °F 30.09 in NW 1.3 mph 4 mph 27.4% 0.00 in 56 W/m2
17:29 69.8 °F 34.3 °F 30.09 in Calm   4 mph 27% 0.00 in 40 W/m2
17:34 69.8 °F 35.1 °F 30.09 in Calm   4 mph 27.8% 0.00 in 47 W/m2
17:39 69.6 °F 34 °F 30.09 in Calm     26.8% 0.00 in 53 W/m2
17:44 69.3 °F 34.1 °F 30.09 in Calm     27.2% 0.00 in 51 W/m2
17:49 69.1 °F 33.7 °F 30.09 in NW 0.3 mph 3 mph 27% 0.00 in 53 W/m2
17:54 68.9 °F 33.1 °F 30.09 in Calm   3 mph 26.6% 0.00 in 53 W/m2
17:59 68.8 °F 35.2 °F 30.09 in Calm   3 mph 28.9% 0.00 in 49 W/m2
18:04 68.8 °F 34.8 °F 30.09 in Calm   3 mph 28.5% 0.00 in 49 W/m2
18:09 68.9 °F 35.5 °F 30.09 in NW 0.6 mph 5 mph 29.2% 0.00 in 49 W/m2
18:14 68.9 °F 33.2 °F 30.09 in Calm   5 mph 26.6% 0.00 in 49 W/m2
18:19 68.9 °F 34.2 °F 30.08 in Calm   5 mph 27.7% 0.00 in 44 W/m2
18:24 68.9 °F 35.6 °F 30.09 in NW 0.4 mph 5 mph 29.3% 0.00 in 42 W/m2
18:29 68.9 °F 35.2 °F 30.09 in NW 0.4 mph 5 mph 28.8% 0.00 in 42 W/m2
18:34 68.8 °F 34.5 °F 30.09 in Calm   5 mph 28.1% 0.00 in 42 W/m2
18:39 68.8 °F 35.6 °F 30.09 in Calm   1 mph 29.5% 0.00 in 35 W/m2
18:44 68.6 °F 35.3 °F 30.09 in NW 0.2 mph 3 mph 29.1% 0.00 in 35 W/m2
18:49 68.5 °F 34.3 °F 30.09 in NW 0.2 mph 3 mph 28.2% 0.00 in 33 W/m2
18:54 68.3 °F 33.3 °F 30.09 in Calm   3 mph 27.3% 0.00 in 30 W/m2
18:59 68.1 °F 34.7 °F 30.09 in Calm   3 mph 29% 0.00 in 26 W/m2
19:04 68 °F 35.3 °F 30.09 in Calm   3 mph 29.8% 0.00 in 28 W/m2
19:09 67.8 °F 36.5 °F 30.09 in Calm     31.5% 0.00 in 26 W/m2
19:14 67.7 °F 36.3 °F 30.09 in Calm     31.4% 0.00 in 25 W/m2
19:19 67.5 °F 36.6 °F 30.09 in Calm     32% 0.00 in 25 W/m2
19:24 67.3 °F 35.8 °F 30.09 in Calm     31.2% 0.00 in 25 W/m2
19:29 67.1 °F 35.2 °F 30.10 in Calm     30.7% 0.00 in 19 W/m2
19:34 66.9 °F 35.6 °F 30.10 in Calm     31.4% 0.00 in 18 W/m2
19:39 66.7 °F 35.5 °F 30.09 in Calm     31.5% 0.00 in 14 W/m2
19:44 66.5 °F 36.3 °F 30.10 in NW 0.1 mph 3 mph 32.6% 0.00 in 12 W/m2
19:49 66.3 °F 37.1 °F 30.10 in Calm   3 mph 34.1% 0.00 in 9 W/m2
19:54 65.9 °F 37.5 °F 30.10 in Calm   3 mph 35% 0.00 in 5 W/m2
19:59 65.6 °F 37.8 °F 30.10 in Calm   3 mph 35.8% 0.00 in 0 W/m2
20:09 64.8 °F 39.6 °F 30.10 in Calm   1 mph 39.5% 0.00 in 0 W/m2
20:14 64.2 °F 39.6 °F 30.10 in Calm   1 mph 40.3% 0.00 in 0 W/m2
20:19 63.7 °F 39.3 °F 30.10 in Calm   1 mph 40.5% 0.00 in 0 W/m2
20:24 63.2 °F 38.1 °F 30.10 in Calm   1 mph 39.4% 0.00 in 0 W/m2
20:29 62.9 °F 39.4 °F 30.11 in Calm   1 mph 42% 0.00 in 0 W/m2
20:34 62.3 °F 39.9 °F 30.11 in Calm   1 mph 43.6% 0.00 in 0 W/m2
20:39 61.7 °F 40.2 °F 30.11 in Calm     45.1% 0.00 in 0 W/m2
20:44 61.2 °F 40.3 °F 30.11 in Calm     46% 0.00 in 0 W/m2
20:49 60.7 °F 40.2 °F 30.11 in Calm     46.7% 0.00 in 0 W/m2
20:54 60.4 °F 40.8 °F 30.12 in Calm     48.4% 0.00 in 0 W/m2
20:59 60 °F 41.5 °F 30.12 in Calm     50.2% 0.00 in 0 W/m2
21:04 59.6 °F 41.6 °F 30.12 in Calm     51.2% 0.00 in 0 W/m2
21:09 59.2 °F 41.4 °F 30.12 in Calm     51.5% 0.00 in 0 W/m2
21:14 58.8 °F 41.9 °F 30.12 in Calm     53.4% 0.00 in 0 W/m2
21:19 58.5 °F 42.4 °F 30.12 in Calm     55% 0.00 in 0 W/m2
21:24 58.1 °F 42.4 °F 30.12 in Calm     55.8% 0.00 in 0 W/m2
21:29 57.7 °F 42.6 °F 30.12 in Calm     57.1% 0.00 in 0 W/m2
21:34 57.2 °F 42.3 °F 30.12 in Calm     57.4% 0.00 in 0 W/m2
21:39 56.9 °F 41.7 °F 30.12 in Calm     56.7% 0.00 in 0 W/m2
21:44 56.6 °F 40.4 °F 30.12 in Calm     54.6% 0.00 in 0 W/m2
21:49 56.5 °F 40 °F 30.12 in Calm     53.9% 0.00 in 0 W/m2
21:54 56.4 °F 40.3 °F 30.13 in Calm     54.7% 0.00 in 0 W/m2
21:59 56.3 °F 40.6 °F 30.13 in Calm     55.5% 0.00 in 0 W/m2
22:04 56.1 °F 39.9 °F 30.13 in Calm     54.5% 0.00 in 0 W/m2
22:09 55.9 °F 39.3 °F 30.13 in Calm     53.4% 0.00 in 0 W/m2
22:14 55.8 °F 39.1 °F 30.13 in Calm     53.4% 0.00 in 0 W/m2
22:19 55.7 °F 39.3 °F 30.13 in Calm     53.9% 0.00 in 0 W/m2
22:24 55.6 °F 39.5 °F 30.13 in Calm     54.6% 0.00 in 0 W/m2
22:29 55.4 °F 39.1 °F 30.13 in Calm     54% 0.00 in 0 W/m2
22:34 55.3 °F 38.8 °F 30.13 in Calm     53.7% 0.00 in 0 W/m2
22:39 55.3 °F 39.6 °F 30.13 in Calm     55.4% 0.00 in 0 W/m2
22:44 55.1 °F 39.7 °F 30.13 in Calm     56% 0.00 in 0 W/m2
22:49 54.9 °F 38.9 °F 30.13 in Calm     54.6% 0.00 in 0 W/m2
22:54 54.7 °F 38.9 °F 30.14 in Calm     55% 0.00 in 0 W/m2
22:59 54.5 °F 38.7 °F 30.14 in Calm     55% 0.00 in 0 W/m2
23:04 54.3 °F 38.5 °F 30.14 in Calm     55% 0.00 in 0 W/m2
23:09 54.1 °F 38.7 °F 30.14 in Calm     55.8% 0.00 in 0 W/m2
23:14 53.9 °F 38.4 °F 30.14 in Calm     55.6% 0.00 in 0 W/m2
23:19 53.8 °F 38.5 °F 30.13 in Calm     56% 0.00 in 0 W/m2
23:24 53.6 °F 38.8 °F 30.13 in Calm     56.9% 0.00 in 0 W/m2
23:29 53.5 °F 39.1 °F 30.14 in Calm     58% 0.00 in 0 W/m2
23:34 53.3 °F 38.5 °F 30.14 in Calm     57% 0.00 in 0 W/m2
23:39 53.2 °F 38.4 °F 30.14 in Calm     57% 0.00 in 0 W/m2
23:44 53.1 °F 38.4 °F 30.14 in Calm     57.3% 0.00 in 0 W/m2
23:49 52.9 °F 38.9 °F 30.14 in Calm     58.8% 0.00 in 0 W/m2
23:54 52.8 °F 38.9 °F 30.14 in Calm     59% 0.00 in 0 W/m2
23:59 52.7 °F 38.8 °F 30.14 in Calm     59.2% 0.00 in 0 W/m2
Hartford County Weather
Compliments of Weather Underground - 2 mb